Kezdőlap
METAR-TAF:

METAR-TAF

Repülőterek :

Marshalltown Municipal Airport

Marshalltown, Iowa, Amerikai Egyesült Államok

földrajzi szélesség: 42-06-38N, földrajzi hosszúság: 092-54-58W, magasság: 296 m

Jelenlegi meteorológiai megfigyelések

A jelentés 1 órával és 4 perccel ezelõtt készült, 07:53 UTC
Dél-délkeleti szél 5 kt
Hőmérséklet 22°C
Páratartalom 94%
Légköri nyomás 1012 hPa
Látótávolság: 16.1 km
Derült ég

METAR: KMIW 100753Z AUTO 16005KT 10SM CLR 22/21 A2989 RMK AO2 SLP112 T02220211

Idő: 03:57 (08:57 UTC)


TAF: hiányzik

Meteorológiai megfigyelések és előrejelzések több, mint 4000 repülőtéren (METAR és TAF jelentéseket).

A térképen piros és sárga pontok jelzik az elérhető meteorológiai állomásokat.

Mozgassa az egeret a pont fölött, hogy megjelenjen az állomás neve.

Azután kattintson az időjárási megfigyelések és előrejelzések megtekintéséhez.

A térkép megváltoztatása: kattintson a fekete keresztel jelölt zöld gombra ráközelítéshez, a vonallal jelölt zöld gombra távolításhoz, vagy a zöld nyilakra a szomszédos térképek eléréséhez.


METAR-TAF: